sensor_id;sensor_type;location;lat;lon;timestamp;pressure;altitude;pressure_sealevel;temperature;humidity
9281;BME280;4679;47.966;7.958;2022-11-28T07:09:36;96813.06;;;6.32;80.44
9281;BME280;4679;47.966;7.958;2022-11-28T07:11:40;96817.66;;;6.25;81.80
9281;BME280;4679;47.966;7.958;2022-11-28T07:13:42;96816.03;;;6.24;81.87
9281;BME280;4679;47.966;7.958;2022-11-28T07:15:47;96819.25;;;6.26;81.26
9281;BME280;4679;47.966;7.958;2022-11-28T07:17:49;96824.97;;;6.23;80.58
9281;BME280;4679;47.966;7.958;2022-11-28T07:19:51;96827.94;;;6.26;81.47
9281;BME280;4679;47.966;7.958;2022-11-28T07:21:52;96822.72;;;6.38;81.09
9281;BME280;4679;47.966;7.958;2022-11-28T07:23:56;96821.72;;;6.39;81.27
9281;BME280;4679;47.966;7.958;2022-11-28T07:25:59;96832.47;;;6.38;80.64
9281;BME280;4679;47.966;7.958;2022-11-28T07:28:01;96833.88;;;6.52;81.20
9281;BME280;4679;47.966;7.958;2022-11-28T07:30:04;96840.88;;;6.58;80.29
9281;BME280;4679;47.966;7.958;2022-11-28T07:32:06;96849.38;;;6.60;80.06
9281;BME280;4679;47.966;7.958;2022-11-28T07:34:08;96842.63;;;6.64;80.61
9281;BME280;4679;47.966;7.958;2022-11-28T07:36:12;96839.78;;;6.77;80.56
9281;BME280;4679;47.966;7.958;2022-11-28T07:38:14;96839.47;;;6.85;79.86
9281;BME280;4679;47.966;7.958;2022-11-28T07:40:15;96849.09;;;6.80;79.67
9281;BME280;4679;47.966;7.958;2022-11-28T07:42:20;96849.97;;;6.74;79.54
9281;BME280;4679;47.966;7.958;2022-11-28T07:44:22;96847.59;;;6.72;79.75
9281;BME280;4679;47.966;7.958;2022-11-28T07:46:24;96841.19;;;6.80;79.51
9281;BME280;4679;47.966;7.958;2022-11-28T07:48:26;96836.38;;;6.88;79.51
9281;BME280;4679;47.966;7.958;2022-11-28T07:50:28;96842.00;;;6.92;79.53
9281;BME280;4679;47.966;7.958;2022-11-28T07:52:30;96839.72;;;6.95;80.17
9281;BME280;4679;47.966;7.958;2022-11-28T07:54:32;96843.97;;;7.08;79.98
9281;BME280;4679;47.966;7.958;2022-11-28T07:56:35;96831.50;;;7.15;79.29
9281;BME280;4679;47.966;7.958;2022-11-28T07:58:39;96845.81;;;7.07;79.28
9281;BME280;4679;47.966;7.958;2022-11-28T08:00:41;96845.25;;;7.17;78.92
9281;BME280;4679;47.966;7.958;2022-11-28T08:02:43;96843.06;;;7.26;79.20
9281;BME280;4679;47.966;7.958;2022-11-28T08:04:45;96849.16;;;7.26;78.60
9281;BME280;4679;47.966;7.958;2022-11-28T08:06:46;96843.19;;;7.31;79.38
9281;BME280;4679;47.966;7.958;2022-11-28T08:08:48;96847.91;;;7.29;79.03
9281;BME280;4679;47.966;7.958;2022-11-28T08:10:50;96843.66;;;7.28;78.61
9281;BME280;4679;47.966;7.958;2022-11-28T08:12:52;96849.06;;;7.45;79.12
9281;BME280;4679;47.966;7.958;2022-11-28T08:14:55;96848.34;;;7.49;78.21
9281;BME280;4679;47.966;7.958;2022-11-28T08:16:56;96846.41;;;7.45;78.16
9281;BME280;4679;47.966;7.958;2022-11-28T08:18:59;96840.31;;;7.44;78.41
9281;BME280;4679;47.966;7.958;2022-11-28T08:21:03;96843.31;;;7.48;78.91
9281;BME280;4679;47.966;7.958;2022-11-28T08:23:04;96842.50;;;7.47;78.49
9281;BME280;4679;47.966;7.958;2022-11-28T08:25:07;96849.63;;;7.47;78.72
9281;BME280;4679;47.966;7.958;2022-11-28T08:27:09;96843.06;;;7.49;78.61
9281;BME280;4679;47.966;7.958;2022-11-28T08:29:10;96841.47;;;7.48;78.06
9281;BME280;4679;47.966;7.958;2022-11-28T08:31:15;96837.31;;;7.52;77.93
9281;BME280;4679;47.966;7.958;2022-11-28T08:33:17;96841.13;;;7.56;78.72
9281;BME280;4679;47.966;7.958;2022-11-28T08:35:19;96841.13;;;7.56;78.11
9281;BME280;4679;47.966;7.958;2022-11-28T08:37:21;96837.78;;;7.61;77.98
9281;BME280;4679;47.966;7.958;2022-11-28T08:39:22;96835.59;;;7.69;78.39
9281;BME280;4679;47.966;7.958;2022-11-28T08:41:24;96836.97;;;7.72;78.02
9281;BME280;4679;47.966;7.958;2022-11-28T08:43:26;96829.97;;;7.78;78.41
9281;BME280;4679;47.966;7.958;2022-11-28T08:45:27;96836.06;;;7.78;77.91
9281;BME280;4679;47.966;7.958;2022-11-28T08:47:31;96825.50;;;7.78;77.74
9281;BME280;4679;47.966;7.958;2022-11-28T08:49:35;96827.09;;;7.79;77.85
9281;BME280;4679;47.966;7.958;2022-11-28T08:51:38;96830.50;;;7.80;77.80
9281;BME280;4679;47.966;7.958;2022-11-28T08:53:40;96838.44;;;7.80;77.76
9281;BME280;4679;47.966;7.958;2022-11-28T08:55:43;96830.28;;;7.81;78.45
9281;BME280;4679;47.966;7.958;2022-11-28T08:57:45;96826.59;;;7.82;77.75
9281;BME280;4679;47.966;7.958;2022-11-28T08:59:47;96826.59;;;7.82;78.20
9281;BME280;4679;47.966;7.958;2022-11-28T09:01:50;96818.44;;;7.84;77.92
9281;BME280;4679;47.966;7.958;2022-11-28T09:03:55;96818.34;;;7.90;78.04
9281;BME280;4679;47.966;7.958;2022-11-28T09:05:59;96821.97;;;8.01;77.91
9281;BME280;4679;47.966;7.958;2022-11-28T09:08:01;96820.47;;;8.05;77.58
9281;BME280;4679;47.966;7.958;2022-11-28T09:10:03;96819.91;;;8.03;77.93
9281;BME280;4679;47.966;7.958;2022-11-28T09:12:06;96826.22;;;8.02;77.96
9281;BME280;4679;47.966;7.958;2022-11-28T09:14:08;96822.88;;;8.06;77.69
9281;BME280;4679;47.966;7.958;2022-11-28T09:16:10;96825.28;;;8.08;77.75
9281;BME280;4679;47.966;7.958;2022-11-28T09:18:13;96824.25;;;8.09;77.87
9281;BME280;4679;47.966;7.958;2022-11-28T09:20:16;96830.66;;;8.13;77.70
9281;BME280;4679;47.966;7.958;2022-11-28T09:22:18;96827.91;;;8.20;77.66
9281;BME280;4679;47.966;7.958;2022-11-28T09:24:20;96820.84;;;8.25;77.39
9281;BME280;4679;47.966;7.958;2022-11-28T09:26:23;96822.00;;;8.29;77.28
9281;BME280;4679;47.966;7.958;2022-11-28T09:28:25;96826.59;;;8.34;77.20
9281;BME280;4679;47.966;7.958;2022-11-28T09:30:28;96826.84;;;8.32;77.36
9281;BME280;4679;47.966;7.958;2022-11-28T09:32:30;96815.47;;;8.32;77.45
9281;BME280;4679;47.966;7.958;2022-11-28T09:34:31;96823.72;;;8.35;77.50
9281;BME280;4679;47.966;7.958;2022-11-28T09:36:34;96821.16;;;8.40;77.43
9281;BME280;4679;47.966;7.958;2022-11-28T09:38:37;96823.56;;;8.42;77.86
9281;BME280;4679;47.966;7.958;2022-11-28T09:40:41;96830.47;;;8.43;77.56
9281;BME280;4679;47.966;7.958;2022-11-28T09:42:44;96827.81;;;8.43;77.36
9281;BME280;4679;47.966;7.958;2022-11-28T09:44:50;96819.19;;;8.48;77.14
9281;BME280;4679;47.966;7.958;2022-11-28T09:46:54;96819.59;;;8.56;77.30
9281;BME280;4679;47.966;7.958;2022-11-28T09:49:01;96823.13;;;8.62;76.99
9281;BME280;4679;47.966;7.958;2022-11-28T09:51:06;96815.19;;;8.62;76.96
9281;BME280;4679;47.966;7.958;2022-11-28T09:53:22;96819.56;;;8.68;77.00
9281;BME280;4679;47.966;7.958;2022-11-28T09:55:30;96825.00;;;8.78;76.94
9281;BME280;4679;47.966;7.958;2022-11-28T09:57:39;96820.38;;;8.85;76.66
9281;BME280;4679;47.966;7.958;2022-11-28T09:59:41;96826.13;;;8.82;76.69
9281;BME280;4679;47.966;7.958;2022-11-28T10:01:46;96823.25;;;8.84;76.27
9281;BME280;4679;47.966;7.958;2022-11-28T10:03:54;96822.75;;;8.87;75.88
9281;BME280;4679;47.966;7.958;2022-11-28T10:06:03;96820.91;;;8.87;76.02
9281;BME280;4679;47.966;7.958;2022-11-28T10:08:18;96820.66;;;8.89;76.11
9281;BME280;4679;47.966;7.958;2022-11-28T10:10:28;96815.31;;;8.84;76.41
9281;BME280;4679;47.966;7.958;2022-11-28T10:12:42;96822.22;;;8.85;76.40
9281;BME280;4679;47.966;7.958;2022-11-28T10:15:02;96817.97;;;8.84;76.29
9281;BME280;4679;47.966;7.958;2022-11-28T10:17:15;96822.22;;;8.85;76.09
9281;BME280;4679;47.966;7.958;2022-11-28T10:19:31;96815.31;;;8.84;76.39
9281;BME280;4679;47.966;7.958;2022-11-28T10:21:38;96813.47;;;8.84;76.37
9281;BME280;4679;47.966;7.958;2022-11-28T10:23:44;96812.69;;;8.84;76.17
9281;BME280;4679;47.966;7.958;2022-11-28T10:25:50;96821.41;;;8.84;76.24
9281;BME280;4679;47.966;7.958;2022-11-28T10:27:54;96828.53;;;8.84;76.00
9281;BME280;4679;47.966;7.958;2022-11-28T10:29:59;96818.78;;;8.84;76.91
9281;BME280;4679;47.966;7.958;2022-11-28T10:32:03;96824.88;;;8.85;75.79
9281;BME280;4679;47.966;7.958;2022-11-28T10:34:10;96820.91;;;8.87;76.30
9281;BME280;4679;47.966;7.958;2022-11-28T10:36:19;96825.97;;;8.89;76.00
9281;BME280;4679;47.966;7.958;2022-11-28T10:38:25;96821.47;;;8.89;76.04
9281;BME280;4679;47.966;7.958;2022-11-28T10:40:35;96822.03;;;8.91;76.27
9281;BME280;4679;47.966;7.958;2022-11-28T10:42:42;96822.03;;;8.91;76.27
9281;BME280;4679;47.966;7.958;2022-11-28T10:44:59;96812.75;;;8.89;76.36
9281;BME280;4679;47.966;7.958;2022-11-28T10:47:06;96809.53;;;8.87;76.57
9281;BME280;4679;47.966;7.958;2022-11-28T10:49:24;96802.16;;;8.89;76.71
9281;BME280;4679;47.966;7.958;2022-11-28T10:51:33;96802.16;;;8.89;76.98
9281;BME280;4679;47.966;7.958;2022-11-28T10:53:40;96800.31;;;8.89;76.80
9281;BME280;4679;47.966;7.958;2022-11-28T10:55:57;96801.91;;;8.90;76.81
9281;BME280;4679;47.966;7.958;2022-11-28T10:58:12;96800.06;;;8.91;76.63
9281;BME280;4679;47.966;7.958;2022-11-28T11:00:18;96787.88;;;8.90;76.82
9281;BME280;4679;47.966;7.958;2022-11-28T11:02:25;96790.53;;;8.90;77.10
9281;BME280;4679;47.966;7.958;2022-11-28T11:04:34;96786.03;;;8.90;76.61
9281;BME280;4679;47.966;7.958;2022-11-28T11:06:38;96777.88;;;8.92;77.05
9281;BME280;4679;47.966;7.958;2022-11-28T11:08:39;96772.91;;;8.95;76.79
9281;BME280;4679;47.966;7.958;2022-11-28T11:10:46;96777.72;;;8.98;77.01
9281;BME280;4679;47.966;7.958;2022-11-28T11:12:50;96771.91;;;9.01;76.98
9281;BME280;4679;47.966;7.958;2022-11-28T11:14:52;96764.06;;;9.06;77.26
9281;BME280;4679;47.966;7.958;2022-11-28T11:16:56;96762.78;;;9.09;76.62
9281;BME280;4679;47.966;7.958;2022-11-28T11:18:58;96764.16;;;9.11;76.79
9281;BME280;4679;47.966;7.958;2022-11-28T11:21:07;96757.56;;;9.14;77.14
9281;BME280;4679;47.966;7.958;2022-11-28T11:23:15;96753.38;;;9.18;77.07
9281;BME280;4679;47.966;7.958;2022-11-28T11:25:17;96752.09;;;9.21;77.23
9281;BME280;4679;47.966;7.958;2022-11-28T11:27:22;96755.06;;;9.24;76.76
9281;BME280;4679;47.966;7.958;2022-11-28T11:29:29;96754.56;;;9.27;76.74
9281;BME280;4679;47.966;7.958;2022-11-28T11:31:37;96748.81;;;9.30;76.41
9281;BME280;4679;47.966;7.958;2022-11-28T11:33:41;96741.16;;;9.34;76.83
9281;BME280;4679;47.966;7.958;2022-11-28T11:35:45;96736.41;;;9.36;76.73
9281;BME280;4679;47.966;7.958;2022-11-28T11:37:48;96742.03;;;9.39;76.61
9281;BME280;4679;47.966;7.958;2022-11-28T11:39:51;96739.13;;;9.41;76.82
9281;BME280;4679;47.966;7.958;2022-11-28T11:42:10;96735.69;;;9.40;76.25
9281;BME280;4679;47.966;7.958;2022-11-28T11:44:30;96734.41;;;9.43;77.09
9281;BME280;4679;47.966;7.958;2022-11-28T11:46:34;96729.91;;;9.43;76.94
9281;BME280;4679;47.966;7.958;2022-11-28T11:48:51;96722.28;;;9.47;76.90
9281;BME280;4679;47.966;7.958;2022-11-28T11:50:53;96729.72;;;9.50;76.31
9281;BME280;4679;47.966;7.958;2022-11-28T11:53:05;96727.06;;;9.50;76.38
9281;BME280;4679;47.966;7.958;2022-11-28T11:55:11;96734.44;;;9.48;76.98
9281;BME280;4679;47.966;7.958;2022-11-28T11:57:16;96722.78;;;9.44;76.40
9281;BME280;4679;47.966;7.958;2022-11-28T11:59:20;96728.53;;;9.41;76.80
9281;BME280;4679;47.966;7.958;2022-11-28T12:01:25;96720.59;;;9.41;76.61
9281;BME280;4679;47.966;7.958;2022-11-28T12:03:34;96727.25;;;9.43;77.12
9281;BME280;4679;47.966;7.958;2022-11-28T12:05:45;96723.00;;;9.42;76.79
9281;BME280;4679;47.966;7.958;2022-11-28T12:07:54;96719.06;;;9.45;77.18
9281;BME280;4679;47.966;7.958;2022-11-28T12:09:59;96718.28;;;9.44;77.29
9281;BME280;4679;47.966;7.958;2022-11-28T12:12:06;96718.28;;;9.44;76.92
9281;BME280;4679;47.966;7.958;2022-11-28T12:14:25;96727.56;;;9.47;77.53
9281;BME280;4679;47.966;7.958;2022-11-28T12:16:41;96723.06;;;9.47;77.62
9281;BME280;4679;47.966;7.958;2022-11-28T12:18:57;96715.66;;;9.49;76.96
9281;BME280;4679;47.966;7.958;2022-11-28T12:21:10;96724.41;;;9.50;76.67
9281;BME280;4679;47.966;7.958;2022-11-28T12:23:24;96715.66;;;9.49;77.12
9281;BME280;4679;47.966;7.958;2022-11-28T12:25:32;96711.16;;;9.50;77.02
9281;BME280;4679;47.966;7.958;2022-11-28T12:27:49;96712.78;;;9.51;77.09
9281;BME280;4679;47.966;7.958;2022-11-28T12:30:03;96710.13;;;9.51;77.06
9281;BME280;4679;47.966;7.958;2022-11-28T12:32:32;96714.63;;;9.50;77.34
9281;BME280;4679;47.966;7.958;2022-11-28T12:34:48;96711.16;;;9.50;77.81
9281;BME280;4679;47.966;7.958;2022-11-28T12:37:01;96708.25;;;9.46;78.11
9281;BME280;4679;47.966;7.958;2022-11-28T12:39:15;96706.06;;;9.43;78.01
9281;BME280;4679;47.966;7.958;2022-11-28T12:41:28;96697.88;;;9.45;77.38
9281;BME280;4679;47.966;7.958;2022-11-28T12:43:46;96698.69;;;9.45;77.96
9281;BME280;4679;47.966;7.958;2022-11-28T12:45:56;96690.50;;;9.47;77.57
9281;BME280;4679;47.966;7.958;2022-11-28T12:48:11;96690.50;;;9.47;77.65
9281;BME280;4679;47.966;7.958;2022-11-28T12:50:27;96690.75;;;9.45;77.58
9281;BME280;4679;47.966;7.958;2022-11-28T12:52:34;96691.47;;;9.41;77.70
9281;BME280;4679;47.966;7.958;2022-11-28T12:54:52;96683.47;;;9.36;78.66
9281;BME280;4679;47.966;7.958;2022-11-28T12:57:05;96678.97;;;9.36;78.10
9281;BME280;4679;47.966;7.958;2022-11-28T12:59:19;96682.16;;;9.38;78.50
9281;BME280;4679;47.966;7.958;2022-11-28T13:01:36;96685.94;;;9.42;78.37
9281;BME280;4679;47.966;7.958;2022-11-28T13:03:54;96678.56;;;9.44;78.18
9281;BME280;4679;47.966;7.958;2022-11-28T13:06:11;96684.41;;;9.46;78.24
9281;BME280;4679;47.966;7.958;2022-11-28T13:08:28;96680.97;;;9.46;78.70
9281;BME280;4679;47.966;7.958;2022-11-28T13:10:38;96680.41;;;9.44;78.34
9281;BME280;4679;47.966;7.958;2022-11-28T13:12:47;96685.13;;;9.42;78.61
9281;BME280;4679;47.966;7.958;2022-11-28T13:14:54;96686.19;;;9.41;78.44
9281;BME280;4679;47.966;7.958;2022-11-28T13:17:03;96679.84;;;9.42;79.11
9281;BME280;4679;47.966;7.958;2022-11-28T13:19:13;96676.94;;;9.43;78.65
9281;BME280;4679;47.966;7.958;2022-11-28T13:21:31;96678.47;;;9.39;78.45
9281;BME280;4679;47.966;7.958;2022-11-28T13:26:04;96668.69;;;9.40;79.00
9281;BME280;4679;47.966;7.958;2022-11-28T13:28:12;96667.09;;;9.39;79.23
9281;BME280;4679;47.966;7.958;2022-11-28T13:30:20;96673.19;;;9.39;79.13
9281;BME280;4679;47.966;7.958;2022-11-28T13:32:29;96671.59;;;9.38;79.11
9281;BME280;4679;47.966;7.958;2022-11-28T13:34:36;96673.44;;;9.38;80.08
9281;BME280;4679;47.966;7.958;2022-11-28T13:36:42;96675.28;;;9.37;79.69
9281;BME280;4679;47.966;7.958;2022-11-28T13:38:53;96665.97;;;9.35;79.42
9281;BME280;4679;47.966;7.958;2022-11-28T13:41:03;96673.66;;;9.36;79.55
9281;BME280;4679;47.966;7.958;2022-11-28T13:43:13;96676.56;;;9.35;79.62
9281;BME280;4679;47.966;7.958;2022-11-28T13:45:20;96674.97;;;9.34;79.73
9281;BME280;4679;47.966;7.958;2022-11-28T13:47:30;96676.56;;;9.35;80.39
9281;BME280;4679;47.966;7.958;2022-11-28T13:49:33;96674.44;;;9.32;80.36
9281;BME280;4679;47.966;7.958;2022-11-28T13:51:37;96678.59;;;9.28;80.29
9281;BME280;4679;47.966;7.958;2022-11-28T13:53:40;96681.50;;;9.26;80.73
9281;BME280;4679;47.966;7.958;2022-11-28T13:55:44;96683.09;;;9.27;80.31
9281;BME280;4679;47.966;7.958;2022-11-28T13:57:46;96688.06;;;9.24;80.92
9281;BME280;4679;47.966;7.958;2022-11-28T13:59:51;96685.13;;;9.20;80.71
9281;BME280;4679;47.966;7.958;2022-11-28T14:01:57;96683.75;;;9.17;80.72
9281;BME280;4679;47.966;7.958;2022-11-28T14:04:05;96689.31;;;9.16;81.10
9281;BME280;4679;47.966;7.958;2022-11-28T14:06:09;96677.94;;;9.15;81.48
9281;BME280;4679;47.966;7.958;2022-11-28T14:08:27;96678.47;;;9.17;81.35
9281;BME280;4679;47.966;7.958;2022-11-28T14:10:56;96675.31;;;9.21;81.48
9281;BME280;4679;47.966;7.958;2022-11-28T14:13:15;96677.72;;;9.22;80.90
9281;BME280;4679;47.966;7.958;2022-11-28T14:15:28;96683.50;;;9.19;81.00
9281;BME280;4679;47.966;7.958;2022-11-28T14:17:45;96684.56;;;9.18;81.80
9281;BME280;4679;47.966;7.958;2022-11-28T14:19:59;96682.41;;;9.15;81.46
9281;BME280;4679;47.966;7.958;2022-11-28T14:22:15;96687.72;;;9.15;81.92
9281;BME280;4679;47.966;7.958;2022-11-28T14:24:28;96675.28;;;9.15;82.14
9281;BME280;4679;47.966;7.958;2022-11-28T14:26:37;96684.03;;;9.16;82.29
9281;BME280;4679;47.966;7.958;2022-11-28T14:28:42;96680.56;;;9.15;82.08
9281;BME280;4679;47.966;7.958;2022-11-28T14:30:45;96680.81;;;9.14;81.97
9281;BME280;4679;47.966;7.958;2022-11-28T14:32:54;96689.31;;;9.16;81.99
9281;BME280;4679;47.966;7.958;2022-11-28T14:34:57;96689.31;;;9.16;82.03
9281;BME280;4679;47.966;7.958;2022-11-28T14:39:58;96690.75;;;9.07;82.17
9281;BME280;4679;47.966;7.958;2022-11-28T14:42:33;96691.56;;;9.07;82.29
9281;BME280;4679;47.966;7.958;2022-11-28T14:44:46;96679.38;;;9.06;82.82
9281;BME280;4679;47.966;7.958;2022-11-28T14:47:04;96690.44;;;9.03;82.55
9281;BME280;4679;47.966;7.958;2022-11-28T14:49:16;96691.50;;;9.02;82.38
9281;BME280;4679;47.966;7.958;2022-11-28T14:51:18;96695.50;;;9.05;82.95
9281;BME280;4679;47.966;7.958;2022-11-28T14:53:39;96690.19;;;9.05;82.86
9281;BME280;4679;47.966;7.958;2022-11-28T14:55:43;96695.44;;;9.00;82.97
9281;BME280;4679;47.966;7.958;2022-11-28T14:57:56;96698.91;;;9.00;83.26
9281;BME280;4679;47.966;7.958;2022-11-28T15:00:03;96706.84;;;9.00;83.35
9281;BME280;4679;47.966;7.958;2022-11-28T15:02:22;96702.34;;;9.01;83.67
9281;BME280;4679;47.966;7.958;2022-11-28T15:04:43;96696.16;;;8.95;83.12
9281;BME280;4679;47.966;7.958;2022-11-28T15:06:48;96697.94;;;8.90;83.30
9281;BME280;4679;47.966;7.958;2022-11-28T15:08:57;96704.03;;;8.90;83.64
9281;BME280;4679;47.966;7.958;2022-11-28T15:11:13;96704.59;;;8.92;83.74
9281;BME280;4679;47.966;7.958;2022-11-28T15:13:33;96715.16;;;8.92;84.21
9281;BME280;4679;47.966;7.958;2022-11-28T15:15:45;96713.09;;;8.94;83.96
9281;BME280;4679;47.966;7.958;2022-11-28T15:17:49;96723.91;;;8.93;84.05
9281;BME280;4679;47.966;7.958;2022-11-28T15:19:53;96718.06;;;8.91;83.89
9281;BME280;4679;47.966;7.958;2022-11-28T15:21:56;96716.94;;;8.87;84.20
9281;BME280;4679;47.966;7.958;2022-11-28T15:23:58;96723.53;;;8.84;84.51
9281;BME280;4679;47.966;7.958;2022-11-28T15:26:00;96721.34;;;8.81;84.63
9281;BME280;4679;47.966;7.958;2022-11-28T15:28:13;96725.53;;;8.77;84.32
9281;BME280;4679;47.966;7.958;2022-11-28T15:30:16;96722.31;;;8.75;84.68
9281;BME280;4679;47.966;7.958;2022-11-28T15:32:19;96727.03;;;8.73;85.21
9281;BME280;4679;47.966;7.958;2022-11-28T15:34:24;96723.53;;;8.67;85.23
9281;BME280;4679;47.966;7.958;2022-11-28T15:36:27;96722.97;;;8.65;84.85
9281;BME280;4679;47.966;7.958;2022-11-28T15:38:30;96720.56;;;8.64;84.86
9281;BME280;4679;47.966;7.958;2022-11-28T15:40:33;96727.69;;;8.63;85.37
9281;BME280;4679;47.966;7.958;2022-11-28T15:42:35;96723.69;;;8.61;85.48
9281;BME280;4679;47.966;7.958;2022-11-28T15:44:41;96730.56;;;8.62;85.30
9281;BME280;4679;47.966;7.958;2022-11-28T15:46:43;96723.69;;;8.61;85.15
9281;BME280;4679;47.966;7.958;2022-11-28T15:48:49;96734.16;;;8.56;85.26
9281;BME280;4679;47.966;7.958;2022-11-28T15:50:51;96724.66;;;8.55;85.22
9281;BME280;4679;47.966;7.958;2022-11-28T15:52:55;96726.88;;;8.46;85.60
9281;BME280;4679;47.966;7.958;2022-11-28T15:54:57;96734.00;;;8.45;84.97
9281;BME280;4679;47.966;7.958;2022-11-28T15:57:00;96729.75;;;8.44;85.66
9281;BME280;4679;47.966;7.958;2022-11-28T15:59:01;96732.06;;;8.41;86.00
9281;BME280;4679;47.966;7.958;2022-11-28T16:01:11;96731.53;;;8.39;85.88
9281;BME280;4679;47.966;7.958;2022-11-28T16:03:16;96735.00;;;8.39;85.80
9281;BME280;4679;47.966;7.958;2022-11-28T16:05:20;96737.06;;;8.37;85.89
9281;BME280;4679;47.966;7.958;2022-11-28T16:07:22;96730.97;;;8.37;86.03
9281;BME280;4679;47.966;7.958;2022-11-28T16:09:26;96733.84;;;8.35;86.00
9281;BME280;4679;47.966;7.958;2022-11-28T16:11:29;96737.53;;;8.34;86.02
9281;BME280;4679;47.966;7.958;2022-11-28T16:13:32;96736.16;;;8.32;85.73
9281;BME280;4679;47.966;7.958;2022-11-28T16:15:35;96736.38;;;8.30;86.19
9281;BME280;4679;47.966;7.958;2022-11-28T16:17:39;96740.84;;;8.30;86.23
9281;BME280;4679;47.966;7.958;2022-11-28T16:19:42;96741.09;;;8.28;86.35
9281;BME280;4679;47.966;7.958;2022-11-28T16:21:50;96735.00;;;8.28;86.20
9281;BME280;4679;47.966;7.958;2022-11-28T16:23:53;96744.75;;;8.27;86.29
9281;BME280;4679;47.966;7.958;2022-11-28T16:25:59;96745.72;;;8.21;86.37
9281;BME280;4679;47.966;7.958;2022-11-28T16:28:01;96740.13;;;8.18;86.34
9281;BME280;4679;47.966;7.958;2022-11-28T16:30:25;96744.81;;;8.16;86.37
9281;BME280;4679;47.966;7.958;2022-11-28T16:32:35;96738.41;;;8.11;86.73
9281;BME280;4679;47.966;7.958;2022-11-28T16:34:46;96748.44;;;8.09;86.98
9281;BME280;4679;47.966;7.958;2022-11-28T16:36:49;96744.19;;;8.08;86.42
9281;BME280;4679;47.966;7.958;2022-11-28T16:38:52;96739.13;;;8.07;87.04
9281;BME280;4679;47.966;7.958;2022-11-28T16:40:58;96748.91;;;8.06;86.95
9281;BME280;4679;47.966;7.958;2022-11-28T16:43:00;96740.19;;;8.06;86.80
9281;BME280;4679;47.966;7.958;2022-11-28T16:45:09;96746.50;;;8.05;86.85
9281;BME280;4679;47.966;7.958;2022-11-28T16:47:24;96750.97;;;8.04;86.80
9281;BME280;4679;47.966;7.958;2022-11-28T16:49:32;96760.41;;;8.00;86.72
9281;BME280;4679;47.966;7.958;2022-11-28T16:51:38;96757.75;;;8.00;87.26
9281;BME280;4679;47.966;7.958;2022-11-28T16:53:43;96750.63;;;8.01;87.05
9281;BME280;4679;47.966;7.958;2022-11-28T16:55:45;96754.88;;;8.02;87.25
9281;BME280;4679;47.966;7.958;2022-11-28T16:57:53;96758.09;;;8.04;86.79
9281;BME280;4679;47.966;7.958;2022-11-28T16:59:55;96738.00;;;8.03;87.21
9281;BME280;4679;47.966;7.958;2022-11-28T17:01:57;96749.59;;;8.02;87.35
9281;BME280;4679;47.966;7.958;2022-11-28T17:03:59;96746.97;;;8.02;87.45
9281;BME280;4679;47.966;7.958;2022-11-28T17:06:01;96753.84;;;8.03;87.43
9281;BME280;4679;47.966;7.958;2022-11-28T17:08:04;96750.19;;;8.04;87.14
9281;BME280;4679;47.966;7.958;2022-11-28T17:10:07;96748.56;;;8.03;87.32
9281;BME280;4679;47.966;7.958;2022-11-28T17:12:16;96747.19;;;8.00;87.29
9281;BME280;4679;47.966;7.958;2022-11-28T17:14:22;96751.09;;;7.98;87.16
9281;BME280;4679;47.966;7.958;2022-11-28T17:16:25;96743.19;;;7.98;87.55
9281;BME280;4679;47.966;7.958;2022-11-28T17:18:27;96742.94;;;7.99;87.85
9281;BME280;4679;47.966;7.958;2022-11-28T17:20:30;96740.88;;;8.01;87.69
9281;BME280;4679;47.966;7.958;2022-11-28T17:22:33;96740.06;;;8.01;87.54
9281;BME280;4679;47.966;7.958;2022-11-28T17:24:39;96757.53;;;8.02;87.25
9281;BME280;4679;47.966;7.958;2022-11-28T17:26:41;96754.66;;;8.03;87.43
9281;BME280;4679;47.966;7.958;2022-11-28T17:28:43;96756.50;;;8.03;87.54
9281;BME280;4679;47.966;7.958;2022-11-28T17:30:45;96754.09;;;8.01;87.38
9281;BME280;4679;47.966;7.958;2022-11-28T17:32:47;96750.31;;;7.97;87.88
9281;BME280;4679;47.966;7.958;2022-11-28T17:34:51;96752.28;;;7.90;87.94
9281;BME280;4679;47.966;7.958;2022-11-28T17:36:53;96748.06;;;7.89;87.93
9281;BME280;4679;47.966;7.958;2022-11-28T17:38:55;96757.00;;;7.88;88.01
9281;BME280;4679;47.966;7.958;2022-11-28T17:40:58;96761.25;;;7.89;87.78
9281;BME280;4679;47.966;7.958;2022-11-28T17:43:02;96755.75;;;7.91;88.02
9281;BME280;4679;47.966;7.958;2022-11-28T17:45:10;96747.81;;;7.91;88.07
9281;BME280;4679;47.966;7.958;2022-11-28T17:47:13;96754.72;;;7.92;88.18
9281;BME280;4679;47.966;7.958;2022-11-28T17:49:15;96756.31;;;7.93;88.17
9281;BME280;4679;47.966;7.958;2022-11-28T17:51:17;96750.00;;;7.94;88.00
9281;BME280;4679;47.966;7.958;2022-11-28T17:53:19;96747.34;;;7.94;88.21
9281;BME280;4679;47.966;7.958;2022-11-28T17:55:21;96750.53;;;7.96;87.94
9281;BME280;4679;47.966;7.958;2022-11-28T17:57:24;96753.19;;;7.96;88.25
9281;BME280;4679;47.966;7.958;2022-11-28T17:59:26;96754.59;;;7.87;88.53
9281;BME280;4679;47.966;7.958;2022-11-28T18:01:29;96765.63;;;7.84;88.66
9281;BME280;4679;47.966;7.958;2022-11-28T18:03:31;96760.91;;;7.86;88.45
9281;BME280;4679;47.966;7.958;2022-11-28T18:05:35;96754.25;;;7.83;88.44
9281;BME280;4679;47.966;7.958;2022-11-28T18:07:36;96761.59;;;7.81;88.22
9281;BME280;4679;47.966;7.958;2022-11-28T18:09:38;96763.44;;;7.81;88.26
9281;BME280;4679;47.966;7.958;2022-11-28T18:11:40;96766.66;;;7.83;88.21
9281;BME280;4679;47.966;7.958;2022-11-28T18:13:44;96765.63;;;7.84;88.46
9281;BME280;4679;47.966;7.958;2022-11-28T18:15:46;96770.09;;;7.83;88.93
9281;BME280;4679;47.966;7.958;2022-11-28T18:17:48;96766.34;;;7.79;88.27
9281;BME280;4679;47.966;7.958;2022-11-28T18:19:49;96758.88;;;7.76;88.32
9281;BME280;4679;47.966;7.958;2022-11-28T18:21:51;96765.78;;;7.77;88.54
9281;BME280;4679;47.966;7.958;2022-11-28T18:23:53;96760.25;;;7.79;88.34
9281;BME280;4679;47.966;7.958;2022-11-28T18:25:54;96770.56;;;7.80;89.12
9281;BME280;4679;47.966;7.958;2022-11-28T18:27:56;96774.00;;;7.81;88.36
9281;BME280;4679;47.966;7.958;2022-11-28T18:30:00;96767.63;;;7.76;88.39
9281;BME280;4679;47.966;7.958;2022-11-28T18:32:02;96769.91;;;7.73;88.54
9281;BME280;4679;47.966;7.958;2022-11-28T18:34:06;96768.31;;;7.72;89.39
9281;BME280;4679;47.966;7.958;2022-11-28T18:36:10;96774.16;;;7.74;88.75
9281;BME280;4679;47.966;7.958;2022-11-28T18:38:12;96771.53;;;7.74;88.60
9281;BME280;4679;47.966;7.958;2022-11-28T18:40:14;96773.94;;;7.75;88.65
9281;BME280;4679;47.966;7.958;2022-11-28T18:42:16;96779.56;;;7.79;89.23
9281;BME280;4679;47.966;7.958;2022-11-28T18:44:18;96775.03;;;7.80;88.95
9281;BME280;4679;47.966;7.958;2022-11-28T18:46:21;96772.97;;;7.82;88.89
9281;BME280;4679;47.966;7.958;2022-11-28T18:48:25;96778.25;;;7.82;88.43
9281;BME280;4679;47.966;7.958;2022-11-28T18:50:27;96772.97;;;7.82;88.85